Time;durP1;ratioP1;P1;durP2;ratioP2;P2;SDS_P1;SDS_P2;PMS_P1;PMS_P2;Temp;Humidity;BMP_temperature;BMP_pressure;BME280_temperature;BME280_humidity;BME280_pressure;Samples;Min_cycle;Max_cycle;Signal;HPM_P1;HPM_P2
2021/06/28 00:01:31;;;;;;;59.45;56.05;;;;;;;;;;5034470;28;20049;-56
2021/06/28 00:03:58;;;;;;;59.30;56.03;;;;;;;;;;5034437;28;20026;-58
2021/06/28 00:06:25;;;;;;;59.65;56.03;;;;;;;;;;5034500;28;20052;-57
2021/06/28 00:08:53;;;;;;;58.40;54.90;;;;;;;;;;5034409;28;20076;-56
2021/06/28 00:11:20;;;;;;;58.67;55.20;;;;;;;;;;5034239;28;20108;-56
2021/06/28 00:13:49;;;;;;;61.38;57.72;;;;;;;;;;5034303;28;20553;-57
2021/06/28 00:16:16;;;;;;;60.80;57.30;;;;;;;;;;5034181;28;20113;-58
2021/06/28 00:18:44;;;;;;;47.70;44.60;;;;;;;;;;5034222;28;20084;-58
2021/06/28 00:21:11;;;;;;;49.30;46.28;;;;;;;;;;5034135;28;20383;-58
2021/06/28 00:23:39;;;;;;;50.15;47.15;;;;;;;;;;5034150;28;20100;-59
2021/06/28 00:26:06;;;;;;;49.65;46.45;;;;;;;;;;5033980;28;20021;-61
2021/06/28 00:28:34;;;;;;;45.83;42.80;;;;;;;;;;5033919;28;20017;-56
2021/06/28 00:31:01;;;;;;;47.92;44.95;;;;;;;;;;5033809;28;20021;-60
2021/06/28 00:33:30;;;;;;;48.63;45.28;;;;;;;;;;5033986;28;20037;-59
2021/06/28 00:35:57;;;;;;;45.20;42.15;;;;;;;;;;5033585;28;20030;-60
2021/06/28 00:38:24;;;;;;;43.17;40.22;;;;;;;;;;5034270;28;20033;-60
2021/06/28 00:40:51;;;;;;;41.30;38.53;;;;;;;;;;5033663;28;20451;-62
2021/06/28 00:43:18;;;;;;;38.45;35.67;;;;;;;;;;5033841;28;20013;-60
2021/06/28 00:45:46;;;;;;;39.90;37.20;;;;;;;;;;5033728;28;20027;-61
2021/06/28 00:48:13;;;;;;;37.33;34.83;;;;;;;;;;5033559;28;20079;-60
2021/06/28 00:50:42;;;;;;;36.20;33.83;;;;;;;;;;5033734;28;20075;-58
2021/06/28 00:53:10;;;;;;;36.10;33.55;;;;;;;;;;5032429;28;20104;-60
2021/06/28 00:55:39;;;;;;;36.30;33.80;;;;;;;;;;5033289;28;20403;-59
2021/06/28 00:58:06;;;;;;;35.53;32.95;;;;;;;;;;5033550;28;20096;-59
2021/06/28 01:00:34;;;;;;;33.63;31.52;;;;;;;;;;5033305;28;20390;-56
2021/06/28 01:03:01;;;;;;;32.58;30.63;;;;;;;;;;5033474;28;20101;-58
2021/06/28 01:05:31;;;;;;;32.55;30.45;;;;;;;;;;5033534;28;20332;-59
2021/06/28 01:07:59;;;;;;;32.65;30.50;;;;;;;;;;5033315;28;20079;-60
2021/06/28 01:10:26;;;;;;;33.95;31.77;;;;;;;;;;5033316;28;20100;-60
2021/06/28 01:12:54;;;;;;;32.60;30.63;;;;;;;;;;5033412;28;20021;-60
2021/06/28 01:15:21;;;;;;;33.40;31.40;;;;;;;;;;5033275;28;20034;-56
2021/06/28 01:17:49;;;;;;;33.10;31.13;;;;;;;;;;5033201;28;20022;-62
2021/06/28 01:20:19;;;;;;;35.17;32.95;;;;;;;;;;5033177;28;20021;-59
2021/06/28 01:22:47;;;;;;;36.57;34.57;;;;;;;;;;5033069;28;20028;-58
2021/06/28 01:25:16;;;;;;;36.92;34.75;;;;;;;;;;5033077;28;20071;-55
2021/06/28 01:27:44;;;;;;;39.90;37.67;;;;;;;;;;5032889;28;20022;-57
2021/06/28 01:30:13;;;;;;;39.42;37.00;;;;;;;;;;5032883;28;20100;-56
2021/06/28 01:32:42;;;;;;;43.72;41.03;;;;;;;;;;5033210;28;20041;-55
2021/06/28 01:35:09;;;;;;;46.65;43.80;;;;;;;;;;5032760;28;20040;-56
2021/06/28 01:37:37;;;;;;;46.13;43.47;;;;;;;;;;5031591;28;20044;-57
2021/06/28 01:40:05;;;;;;;43.53;40.60;;;;;;;;;;5031507;28;20445;-55
2021/06/28 01:42:35;;;;;;;46.20;42.88;;;;;;;;;;5032775;28;20033;-61
2021/06/28 01:45:02;;;;;;;46.53;43.28;;;;;;;;;;5032745;28;20479;-60
2021/06/28 01:47:29;;;;;;;45.38;41.65;;;;;;;;;;5032313;28;20022;-57
2021/06/28 01:49:56;;;;;;;47.40;43.83;;;;;;;;;;5032785;28;20025;-58
2021/06/28 01:52:23;;;;;;;45.78;42.25;;;;;;;;;;5032746;28;20033;-58
2021/06/28 01:54:50;;;;;;;45.42;42.20;;;;;;;;;;5032837;28;20050;-61
2021/06/28 01:57:18;;;;;;;44.97;41.65;;;;;;;;;;5032726;28;20155;-61
2021/06/28 01:59:45;;;;;;;44.80;41.67;;;;;;;;;;5032668;28;20033;-58
2021/06/28 02:02:12;;;;;;;43.25;39.72;;;;;;;;;;5032680;28;20025;-57
2021/06/28 02:04:39;;;;;;;42.63;39.45;;;;;;;;;;5032609;28;20013;-58
2021/06/28 02:07:08;;;;;;;43.20;40.10;;;;;;;;;;5032721;28;20475;-57
2021/06/28 02:09:36;;;;;;;42.63;39.42;;;;;;;;;;5032650;28;20093;-58
2021/06/28 02:12:03;;;;;;;43.70;40.70;;;;;;;;;;5032707;28;20021;-58
2021/06/28 02:14:31;;;;;;;42.17;38.88;;;;;;;;;;5032408;28;20021;-57
2021/06/28 02:16:58;;;;;;;44.00;40.60;;;;;;;;;;5032556;28;20033;-57
2021/06/28 02:19:26;;;;;;;46.17;42.83;;;;;;;;;;5032389;28;20092;-57
2021/06/28 02:21:53;;;;;;;44.03;41.22;;;;;;;;;;5032487;28;20033;-58
2021/06/28 02:24:21;;;;;;;43.35;40.40;;;;;;;;;;5032714;28;20501;-57
2021/06/28 02:26:48;;;;;;;46.03;43.03;;;;;;;;;;5031108;28;20501;-56
2021/06/28 02:29:16;;;;;;;44.47;41.38;;;;;;;;;;5032316;28;20021;-58
2021/06/28 02:31:44;;;;;;;45.35;42.25;;;;;;;;;;5031017;28;20395;-57
2021/06/28 02:34:11;;;;;;;43.65;40.50;;;;;;;;;;5032438;28;20029;-57
2021/06/28 02:36:38;;;;;;;43.20;40.10;;;;;;;;;;5032505;28;20030;-57
2021/06/28 02:39:06;;;;;;;40.95;38.40;;;;;;;;;;5031087;28;20053;-58
2021/06/28 02:41:33;;;;;;;46.85;43.35;;;;;;;;;;5032262;28;20022;-58
2021/06/28 02:44:01;;;;;;;45.45;42.40;;;;;;;;;;5032327;28;20423;-57
2021/06/28 02:46:28;;;;;;;48.92;45.75;;;;;;;;;;5032327;28;20026;-58
2021/06/28 02:48:55;;;;;;;47.72;44.42;;;;;;;;;;5032378;28;20390;-57
2021/06/28 02:51:22;;;;;;;44.65;41.65;;;;;;;;;;5032536;28;20033;-57
2021/06/28 02:53:49;;;;;;;46.47;43.28;;;;;;;;;;5032020;28;20100;-58
2021/06/28 02:56:19;;;;;;;45.45;42.28;;;;;;;;;;5032369;28;20080;-56
2021/06/28 02:58:50;;;;;;;42.72;39.72;;;;;;;;;;5032325;28;20448;-59
2021/06/28 03:01:19;;;;;;;47.83;43.78;;;;;;;;;;5035629;28;20037;-60
2021/06/28 03:03:46;;;;;;;41.95;38.95;;;;;;;;;;5035671;28;20052;-60
2021/06/28 03:06:14;;;;;;;43.00;39.90;;;;;;;;;;5035618;28;20056;-58
2021/06/28 03:08:42;;;;;;;42.33;39.17;;;;;;;;;;5035789;28;20084;-61
2021/06/28 03:11:09;;;;;;;44.47;41.08;;;;;;;;;;5035458;28;20029;-61
2021/06/28 03:13:37;;;;;;;43.45;39.97;;;;;;;;;;5035462;28;20470;-60
2021/06/28 03:16:05;;;;;;;43.35;40.08;;;;;;;;;;5034149;28;20101;-59
2021/06/28 03:18:33;;;;;;;41.47;38.38;;;;;;;;;;5035425;28;20052;-60
2021/06/28 03:21:00;;;;;;;46.55;43.25;;;;;;;;;;5035251;28;20037;-59
2021/06/28 03:23:28;;;;;;;45.72;42.20;;;;;;;;;;5035289;28;20108;-58
2021/06/28 03:25:56;;;;;;;47.05;43.78;;;;;;;;;;5035251;28;20039;-56
2021/06/28 03:28:26;;;;;;;59.42;55.33;;;;;;;;;;5035238;28;20026;-60
2021/06/28 03:30:53;;;;;;;57.57;53.90;;;;;;;;;;5035748;28;20036;-61
2021/06/28 03:33:20;;;;;;;58.95;55.22;;;;;;;;;;5035217;28;20074;-59
2021/06/28 03:35:47;;;;;;;54.83;51.20;;;;;;;;;;5035238;28;20032;-58
2021/06/28 03:38:14;;;;;;;52.05;48.28;;;;;;;;;;5035079;28;20025;-57
2021/06/28 03:40:41;;;;;;;49.28;45.53;;;;;;;;;;5034932;28;20033;-54
2021/06/28 03:43:10;;;;;;;48.60;45.33;;;;;;;;;;5035079;28;20031;-61
2021/06/28 03:45:38;;;;;;;47.50;43.97;;;;;;;;;;5034964;28;20096;-59
2021/06/28 03:48:07;;;;;;;47.85;43.97;;;;;;;;;;5034935;28;20039;-58
2021/06/28 03:50:34;;;;;;;48.90;45.60;;;;;;;;;;5034780;28;20067;-53
2021/06/28 03:53:02;;;;;;;47.92;44.28;;;;;;;;;;5034522;28;20025;-55
2021/06/28 03:55:29;;;;;;;46.92;43.70;;;;;;;;;;5034375;28;20041;-59
2021/06/28 03:57:56;;;;;;;49.75;46.65;;;;;;;;;;5034836;28;20021;-60
2021/06/28 04:00:24;;;;;;;48.28;45.13;;;;;;;;;;5034612;28;20025;-56
2021/06/28 04:02:52;;;;;;;46.75;43.83;;;;;;;;;;5034431;28;20099;-52
2021/06/28 04:05:21;;;;;;;49.40;46.05;;;;;;;;;;5034391;28;20092;-55
2021/06/28 04:07:52;;;;;;;47.95;44.70;;;;;;;;;;5034215;28;20407;-56
2021/06/28 04:10:20;;;;;;;46.75;43.47;;;;;;;;;;5033808;28;20029;-56
2021/06/28 04:12:48;;;;;;;50.45;46.97;;;;;;;;;;5034420;28;20029;-58
2021/06/28 04:15:17;;;;;;;45.95;42.70;;;;;;;;;;5034247;28;20519;-57
2021/06/28 04:17:45;;;;;;;44.90;41.90;;;;;;;;;;5034196;28;20036;-58
2021/06/28 04:20:13;;;;;;;46.00;42.65;;;;;;;;;;5034312;28;20101;-58
2021/06/28 04:22:41;;;;;;;46.13;42.83;;;;;;;;;;5034129;28;20032;-58
2021/06/28 04:25:10;;;;;;;47.92;44.95;;;;;;;;;;5034429;28;20021;-58
2021/06/28 04:27:37;;;;;;;45.78;42.88;;;;;;;;;;5034243;28;20393;-60
2021/06/28 04:30:08;;;;;;;47.50;44.38;;;;;;;;;;5034144;28;20029;-61
2021/06/28 04:32:36;;;;;;;41.00;37.95;;;;;;;;;;5034087;28;20037;-60
2021/06/28 04:35:13;;;;;;;40.75;37.90;;;;;;;;;;5034103;28;20096;-57
2021/06/28 04:37:41;;;;;;;42.15;39.25;;;;;;;;;;5034109;28;20025;-55
2021/06/28 04:40:09;;;;;;;38.95;36.38;;;;;;;;;;5033937;28;20495;-55
2021/06/28 04:42:36;;;;;;;42.88;39.88;;;;;;;;;;5033746;28;20364;-58
2021/06/28 04:45:04;;;;;;;42.67;39.88;;;;;;;;;;5032569;28;20030;-56
2021/06/28 04:47:31;;;;;;;43.33;40.53;;;;;;;;;;5033663;28;20367;-55
2021/06/28 04:50:02;;;;;;;43.72;40.90;;;;;;;;;;5033777;28;20468;-53
2021/06/28 04:52:30;;;;;;;40.45;37.38;;;;;;;;;;5033828;28;20397;-53
2021/06/28 04:54:58;;;;;;;42.25;39.20;;;;;;;;;;5033444;28;20156;-53
2021/06/28 04:57:25;;;;;;;39.58;36.58;;;;;;;;;;5033735;28;20075;-54
2021/06/28 04:59:52;;;;;;;40.72;37.83;;;;;;;;;;5033175;28;20029;-55
2021/06/28 05:02:19;;;;;;;39.85;37.08;;;;;;;;;;5033134;28;20044;-55
2021/06/28 05:04:47;;;;;;;40.28;37.45;;;;;;;;;;5033285;28;20414;-51
2021/06/28 05:07:18;;;;;;;37.97;35.30;;;;;;;;;;5033422;28;20120;-52
2021/06/28 05:09:46;;;;;;;36.33;33.88;;;;;;;;;;5032188;28;20024;-51
2021/06/28 05:12:14;;;;;;;38.28;35.70;;;;;;;;;;5033223;28;20156;-53
2021/06/28 05:14:41;;;;;;;39.00;36.03;;;;;;;;;;5033102;28;20087;-47
2021/06/28 05:17:09;;;;;;;39.58;36.40;;;;;;;;;;5033207;28;20025;-51
2021/06/28 05:19:36;;;;;;;36.83;34.10;;;;;;;;;;5033153;28;20089;-51
2021/06/28 05:22:04;;;;;;;36.40;33.70;;;;;;;;;;5032304;28;20112;-50
2021/06/28 05:24:31;;;;;;;35.78;33.50;;;;;;;;;;5033132;28;20387;-57
2021/06/28 05:26:58;;;;;;;34.65;32.55;;;;;;;;;;5032963;28;20048;-55
2021/06/28 05:29:25;;;;;;;32.60;30.40;;;;;;;;;;5032981;28;20093;-58
2021/06/28 05:31:52;;;;;;;34.75;31.50;;;;;;;;;;5032947;28;20051;-53
2021/06/28 05:34:20;;;;;;;31.10;29.00;;;;;;;;;;5033007;28;20036;-55
2021/06/28 05:36:47;;;;;;;30.52;28.42;;;;;;;;;;5033006;28;20025;-58
2021/06/28 05:39:14;;;;;;;30.35;28.25;;;;;;;;;;5033060;28;20537;-51
2021/06/28 05:41:41;;;;;;;30.90;28.63;;;;;;;;;;5032713;28;20033;-52
2021/06/28 05:44:08;;;;;;;31.77;29.05;;;;;;;;;;5032955;28;20025;-51
2021/06/28 05:46:36;;;;;;;30.60;28.52;;;;;;;;;;5032786;28;20025;-53
2021/06/28 05:49:03;;;;;;;30.10;28.15;;;;;;;;;;5032674;28;20147;-53
2021/06/28 05:51:30;;;;;;;29.77;27.80;;;;;;;;;;5032785;28;20029;-54
2021/06/28 05:53:57;;;;;;;28.98;27.25;;;;;;;;;;5032596;28;20029;-54
2021/06/28 05:56:24;;;;;;;30.95;29.00;;;;;;;;;;5032889;28;20026;-48
2021/06/28 05:58:52;;;;;;;29.33;27.48;;;;;;;;;;5032655;28;20112;-52
2021/06/28 06:01:19;;;;;;;30.30;28.00;;;;;;;;;;5032669;28;20049;-55
2021/06/28 06:03:46;;;;;;;29.23;27.20;;;;;;;;;;5032726;28;20045;-54
2021/06/28 06:06:13;;;;;;;32.17;29.77;;;;;;;;;;5032528;28;20060;-52
2021/06/28 06:08:40;;;;;;;32.67;30.27;;;;;;;;;;5032441;28;20092;-52
2021/06/28 06:11:08;;;;;;;31.38;29.48;;;;;;;;;;5032823;28;20174;-50
2021/06/28 06:13:35;;;;;;;32.28;29.77;;;;;;;;;;5032695;28;20033;-54
2021/06/28 06:16:02;;;;;;;31.60;29.40;;;;;;;;;;5032530;28;20049;-52
2021/06/28 06:18:29;;;;;;;33.55;30.83;;;;;;;;;;5032677;28;20079;-53
2021/06/28 06:20:57;;;;;;;32.45;30.35;;;;;;;;;;5032459;28;20025;-53
2021/06/28 06:23:24;;;;;;;33.55;31.15;;;;;;;;;;5032297;28;20018;-49
2021/06/28 06:25:51;;;;;;;33.42;30.95;;;;;;;;;;5032453;28;20079;-50
2021/06/28 06:28:19;;;;;;;33.67;31.23;;;;;;;;;;5032284;28;20034;-49
2021/06/28 06:30:46;;;;;;;32.63;30.33;;;;;;;;;;5032651;28;20032;-52
2021/06/28 06:33:13;;;;;;;27.83;26.00;;;;;;;;;;5033386;28;20479;-51
2021/06/28 06:35:40;;;;;;;25.85;24.33;;;;;;;;;;5036332;28;20017;-50
2021/06/28 06:38:08;;;;;;;24.95;23.50;;;;;;;;;;5036059;28;20029;-52
2021/06/28 06:40:35;;;;;;;24.75;23.17;;;;;;;;;;5036041;28;20029;-51
2021/06/28 06:43:02;;;;;;;26.00;23.98;;;;;;;;;;5035930;28;20496;-51
2021/06/28 06:45:31;;;;;;;23.90;22.30;;;;;;;;;;5035913;28;20022;-48
2021/06/28 06:47:58;;;;;;;23.73;21.85;;;;;;;;;;5035928;28;20107;-53
2021/06/28 06:50:25;;;;;;;24.20;22.15;;;;;;;;;;5036012;28;20045;-52
2021/06/28 06:52:52;;;;;;;24.45;22.65;;;;;;;;;;5035952;28;20025;-52
2021/06/28 06:55:21;;;;;;;23.98;22.10;;;;;;;;;;5034304;28;20081;-52
2021/06/28 06:57:48;;;;;;;24.17;22.58;;;;;;;;;;5035633;28;20036;-52
2021/06/28 07:00:17;;;;;;;24.30;22.60;;;;;;;;;;5034432;28;20091;-52
2021/06/28 07:02:44;;;;;;;25.83;24.20;;;;;;;;;;5034259;28;20029;-52
2021/06/28 07:05:12;;;;;;;26.65;24.70;;;;;;;;;;5035962;28;20033;-53
2021/06/28 07:07:40;;;;;;;26.40;24.50;;;;;;;;;;5035700;28;20026;-53
2021/06/28 07:10:08;;;;;;;27.10;25.15;;;;;;;;;;5035753;28;20018;-54
2021/06/28 07:12:35;;;;;;;28.67;26.52;;;;;;;;;;5035551;28;20029;-52
2021/06/28 07:15:03;;;;;;;27.40;25.63;;;;;;;;;;5035545;28;20053;-55
2021/06/28 07:17:30;;;;;;;28.77;26.13;;;;;;;;;;5035462;28;20030;-53
2021/06/28 07:19:58;;;;;;;26.88;25.23;;;;;;;;;;5035344;28;20026;-54
2021/06/28 07:22:26;;;;;;;25.80;24.23;;;;;;;;;;5033890;28;20025;-55
2021/06/28 07:24:56;;;;;;;25.95;24.08;;;;;;;;;;5035324;28;20021;-55
2021/06/28 07:27:24;;;;;;;27.33;25.45;;;;;;;;;;5035568;28;20017;-53
2021/06/28 07:29:51;;;;;;;25.65;23.88;;;;;;;;;;5035074;28;20030;-57
2021/06/28 07:32:18;;;;;;;26.67;24.98;;;;;;;;;;5035265;28;20029;-54
2021/06/28 07:34:45;;;;;;;27.23;25.27;;;;;;;;;;5035255;28;20030;-54
2021/06/28 07:37:12;;;;;;;27.20;25.08;;;;;;;;;;5035175;28;20471;-53
2021/06/28 07:39:40;;;;;;;25.65;23.88;;;;;;;;;;5034970;28;20052;-56
2021/06/28 07:42:07;;;;;;;25.23;23.63;;;;;;;;;;5035069;28;20025;-51
2021/06/28 07:44:34;;;;;;;25.70;24.13;;;;;;;;;;5034187;28;20386;-52
2021/06/28 07:47:01;;;;;;;26.70;24.85;;;;;;;;;;5034802;28;20026;-54
2021/06/28 07:49:28;;;;;;;27.50;25.52;;;;;;;;;;5034897;28;20060;-55
2021/06/28 07:51:56;;;;;;;27.02;25.05;;;;;;;;;;5034925;28;20391;-51
2021/06/28 07:54:24;;;;;;;27.98;26.08;;;;;;;;;;5034358;28;20456;-55
2021/06/28 07:56:52;;;;;;;26.55;24.83;;;;;;;;;;5034680;28;20041;-53
2021/06/28 07:59:20;;;;;;;28.35;26.17;;;;;;;;;;5034624;28;20030;-53
2021/06/28 08:01:47;;;;;;;28.65;26.80;;;;;;;;;;5033214;28;20029;-55
2021/06/28 08:04:14;;;;;;;29.50;27.25;;;;;;;;;;5034592;28;20021;-56
2021/06/28 08:06:42;;;;;;;30.58;27.98;;;;;;;;;;5034519;28;20117;-55
2021/06/28 08:09:10;;;;;;;30.70;28.10;;;;;;;;;;5034309;28;20064;-55
2021/06/28 08:11:37;;;;;;;29.67;27.55;;;;;;;;;;5034788;28;20104;-56
2021/06/28 08:14:05;;;;;;;30.13;28.00;;;;;;;;;;5034365;28;20025;-56
2021/06/28 08:16:32;;;;;;;29.58;27.55;;;;;;;;;;5034186;28;20037;-57
2021/06/28 08:18:59;;;;;;;31.27;28.88;;;;;;;;;;5034164;28;20482;-54
2021/06/28 08:21:26;;;;;;;30.65;28.52;;;;;;;;;;5034078;28;20457;-54
2021/06/28 08:23:53;;;;;;;31.58;29.20;;;;;;;;;;5034420;28;20060;-50
2021/06/28 08:26:21;;;;;;;32.72;30.42;;;;;;;;;;5032735;28;20398;-52
2021/06/28 08:28:48;;;;;;;32.80;30.17;;;;;;;;;;5033966;28;20049;-53
2021/06/28 08:31:15;;;;;;;30.10;28.02;;;;;;;;;;5034440;28;20474;-54
2021/06/28 08:33:44;;;;;;;31.63;29.40;;;;;;;;;;5034092;28;20517;-57
2021/06/28 08:36:11;;;;;;;32.03;29.60;;;;;;;;;;5033930;28;20033;-56
2021/06/28 08:38:38;;;;;;;30.60;28.30;;;;;;;;;;5034057;28;20433;-55
2021/06/28 08:41:06;;;;;;;29.65;27.50;;;;;;;;;;5033861;28;20367;-54
2021/06/28 08:43:33;;;;;;;30.00;27.70;;;;;;;;;;5033805;28;20028;-55
2021/06/28 08:46:00;;;;;;;32.25;29.65;;;;;;;;;;5033867;28;20026;-53
2021/06/28 08:48:27;;;;;;;30.05;27.83;;;;;;;;;;5033765;28;20413;-53
2021/06/28 08:50:55;;;;;;;30.00;27.98;;;;;;;;;;5032355;28;20022;-55
2021/06/28 08:53:22;;;;;;;30.65;28.33;;;;;;;;;;5033709;28;20022;-54
2021/06/28 08:55:51;;;;;;;31.33;29.25;;;;;;;;;;5033282;28;20045;-55
2021/06/28 08:58:19;;;;;;;30.85;28.30;;;;;;;;;;5033808;28;20375;-57
2021/06/28 09:00:47;;;;;;;31.95;29.63;;;;;;;;;;5033632;28;20034;-52
2021/06/28 09:03:14;;;;;;;30.83;28.60;;;;;;;;;;5033424;28;20359;-56
2021/06/28 09:05:51;;;;;;;31.35;29.05;;;;;;;;;;5033480;28;20028;-55
2021/06/28 09:08:19;;;;;;;30.35;28.42;;;;;;;;;;5033496;28;20096;-56
2021/06/28 09:10:47;;;;;;;32.13;29.88;;;;;;;;;;5033326;28;20024;-56
2021/06/28 09:13:14;;;;;;;33.28;30.83;;;;;;;;;;5033326;28;20026;-56
2021/06/28 09:15:48;;;;;;;31.70;29.45;;;;;;;;;;5033324;28;20025;-57
2021/06/28 09:18:15;;;;;;;32.10;29.92;;;;;;;;;;5033180;28;20032;-56
2021/06/28 09:20:42;;;;;;;31.63;29.13;;;;;;;;;;5033427;28;20109;-54
2021/06/28 09:23:36;;;;;;;32.03;29.38;;;;;;;;;;5032971;28;20029;-53
2021/06/28 09:26:03;;;;;;;31.67;29.50;;;;;;;;;;5031370;28;20483;-54
2021/06/28 09:28:36;;;;;;;31.35;29.25;;;;;;;;;;5033068;28;20156;-55
2021/06/28 09:31:03;;;;;;;32.38;30.17;;;;;;;;;;5033104;28;20022;-53
2021/06/28 09:33:30;;;;;;;32.35;29.90;;;;;;;;;;5033239;28;20028;-55
2021/06/28 09:35:57;;;;;;;33.63;31.25;;;;;;;;;;5033270;28;20032;-53
2021/06/28 09:38:36;;;;;;;32.83;30.42;;;;;;;;;;5033077;28;20033;-56
2021/06/28 09:41:23;;;;;;;34.60;31.75;;;;;;;;;;5032740;28;20581;-58
2021/06/28 09:43:51;;;;;;;32.47;30.25;;;;;;;;;;5033135;28;20391;-59
2021/06/28 09:46:22;;;;;;;33.78;31.52;;;;;;;;;;5032891;28;20534;-58
2021/06/28 09:48:50;;;;;;;33.72;31.33;;;;;;;;;;5032987;28;20025;-59
2021/06/28 09:51:22;;;;;;;33.10;30.90;;;;;;;;;;5032949;28;20022;-60
2021/06/28 09:53:50;;;;;;;33.90;31.42;;;;;;;;;;5032738;28;20386;-59
2021/06/28 09:56:51;;;;;;;35.03;32.63;;;;;;;;;;5032891;28;20022;-58
2021/06/28 09:59:38;;;;;;;37.05;34.60;;;;;;;;;;5010893;28;20033;-58
2021/06/28 10:02:12;;;;;;;35.97;33.63;;;;;;;;;;5032630;28;20041;-58
2021/06/28 10:04:49;;;;;;;38.03;35.08;;;;;;;;;;5032671;28;20064;-59
2021/06/28 10:07:20;;;;;;;37.20;34.72;;;;;;;;;;5032685;28;20061;-59
2021/06/28 10:10:04;;;;;;;38.45;35.55;;;;;;;;;;5036342;28;20363;-61
2021/06/28 10:12:31;;;;;;;38.05;35.20;;;;;;;;;;5036745;28;20075;-60
2021/06/28 10:14:59;;;;;;;38.83;36.17;;;;;;;;;;5036459;28;20053;-60
2021/06/28 10:17:26;;;;;;;38.85;35.85;;;;;;;;;;5036490;28;20371;-61
2021/06/28 10:19:53;;;;;;;38.15;35.63;;;;;;;;;;5036723;28;20147;-61
2021/06/28 10:22:21;;;;;;;38.78;35.97;;;;;;;;;;5036670;28;20022;-60
2021/06/28 10:24:48;;;;;;;37.75;34.83;;;;;;;;;;5036561;28;20026;-59
2021/06/28 10:27:15;;;;;;;36.13;33.65;;;;;;;;;;5036551;28;20092;-60
2021/06/28 10:29:44;;;;;;;38.08;35.20;;;;;;;;;;5036464;28;20171;-61
2021/06/28 10:32:12;;;;;;;38.28;35.15;;;;;;;;;;5036553;28;20474;-61
2021/06/28 10:34:41;;;;;;;40.28;37.28;;;;;;;;;;5036307;28;20044;-60
2021/06/28 10:37:26;;;;;;;40.05;36.90;;;;;;;;;;5036436;28;20363;-57
2021/06/28 10:39:57;;;;;;;39.30;36.40;;;;;;;;;;5036261;28;20021;-58
2021/06/28 10:42:23;;;;;;;;;;;;;;;;;;5036577;28;20367;-56
2021/06/28 10:44:51;;;;;;;39.25;36.17;;;;;;;;;;5036155;28;20340;-60
2021/06/28 10:47:18;;;;;;;39.67;36.35;;;;;;;;;;5036147;28;20097;-60
2021/06/28 10:49:45;;;;;;;39.50;36.45;;;;;;;;;;5036042;28;20044;-61
2021/06/28 10:52:15;;;;;;;41.35;38.08;;;;;;;;;;5036090;28;20017;-61
2021/06/28 10:54:42;;;;;;;40.17;37.08;;;;;;;;;;5035709;28;20391;-60
2021/06/28 10:57:11;;;;;;;40.47;37.13;;;;;;;;;;5036004;28;20021;-60
2021/06/28 10:59:46;;;;;;;42.22;39.13;;;;;;;;;;5035974;28;20490;-61
2021/06/28 11:02:14;;;;;;;41.92;38.63;;;;;;;;;;5035679;28;20033;-59
2021/06/28 11:04:42;;;;;;;42.20;38.85;;;;;;;;;;5035799;28;20104;-60
2021/06/28 11:07:11;;;;;;;40.50;37.40;;;;;;;;;;5035786;28;20105;-58
2021/06/28 11:09:49;;;;;;;41.28;37.60;;;;;;;;;;5035827;28;20025;-61
2021/06/28 11:12:25;;;;;;;39.35;36.42;;;;;;;;;;5035642;28;20123;-60
2021/06/28 11:15:00;;;;;;;40.40;37.17;;;;;;;;;;5035638;28;20080;-61
2021/06/28 11:17:45;;;;;;;40.13;37.05;;;;;;;;;;5035544;28;20025;-59
2021/06/28 11:20:20;;;;;;;43.08;39.67;;;;;;;;;;5034146;28;20040;-60
2021/06/28 11:22:51;;;;;;;41.97;38.80;;;;;;;;;;5035248;28;20033;-60
2021/06/28 11:25:26;;;;;;;44.55;40.83;;;;;;;;;;5035366;28;20052;-60
2021/06/28 11:27:59;;;;;;;42.20;38.60;;;;;;;;;;5035303;28;20096;-61
2021/06/28 11:30:28;;;;;;;41.63;37.60;;;;;;;;;;5035357;28;20064;-60
2021/06/28 11:33:07;;;;;;;41.28;38.13;;;;;;;;;;5035331;28;20056;-62
2021/06/28 11:35:34;;;;;;;39.88;36.75;;;;;;;;;;5035075;28;20029;-60
2021/06/28 11:38:18;;;;;;;41.05;37.83;;;;;;;;;;5035092;28;20047;-60
2021/06/28 11:40:50;;;;;;;41.28;38.17;;;;;;;;;;5035113;28;20021;-61
2021/06/28 11:43:36;;;;;;;43.95;40.75;;;;;;;;;;5034998;28;20025;-59
2021/06/28 11:46:04;;;;;;;42.30;38.88;;;;;;;;;;5034966;28;20031;-59
2021/06/28 11:48:32;;;;;;;43.90;41.05;;;;;;;;;;5034941;28;20600;-60
2021/06/28 11:51:00;;;;;;;46.20;43.03;;;;;;;;;;5034884;28;20020;-62
2021/06/28 11:53:27;;;;;;;44.65;41.28;;;;;;;;;;5034907;28;20018;-60
2021/06/28 11:55:54;;;;;;;42.40;39.50;;;;;;;;;;5034601;28;20395;-60
2021/06/28 11:58:24;;;;;;;43.60;40.58;;;;;;;;;;5034801;28;20060;-61
2021/06/28 12:01:03;;;;;;;42.72;39.65;;;;;;;;;;5034727;28;20055;-61
2021/06/28 12:03:37;;;;;;;44.90;41.35;;;;;;;;;;5034745;28;20058;-59
2021/06/28 12:06:08;;;;;;;42.63;39.10;;;;;;;;;;5034622;28;20028;-59
2021/06/28 12:08:35;;;;;;;44.45;41.33;;;;;;;;;;5034617;28;20013;-61
2021/06/28 12:11:04;;;;;;;41.67;38.75;;;;;;;;;;5034750;28;20033;-61
2021/06/28 12:13:34;;;;;;;45.10;41.90;;;;;;;;;;5034548;28;20638;-59
2021/06/28 12:16:18;;;;;;;44.88;42.03;;;;;;;;;;5034393;28;20021;-57
2021/06/28 12:18:45;;;;;;;46.58;43.38;;;;;;;;;;5034270;28;20397;-59
2021/06/28 12:21:13;;;;;;;48.35;44.65;;;;;;;;;;5034192;28;20018;-58
2021/06/28 12:23:40;;;;;;;47.50;43.65;;;;;;;;;;5034519;28;20025;-58
2021/06/28 12:26:12;;;;;;;47.90;44.65;;;;;;;;;;5034282;28;20363;-58
2021/06/28 12:28:39;;;;;;;51.55;48.00;;;;;;;;;;5034424;28;20021;-60
2021/06/28 12:31:18;;;;;;;48.72;45.45;;;;;;;;;;5034087;28;20494;-60
2021/06/28 12:33:46;;;;;;;49.35;46.45;;;;;;;;;;5034191;28;20474;-59
2021/06/28 12:36:19;;;;;;;49.67;46.33;;;;;;;;;;5034083;28;20018;-60
2021/06/28 12:38:46;;;;;;;51.30;47.83;;;;;;;;;;5034245;28;20014;-60
2021/06/28 12:41:13;;;;;;;51.42;47.88;;;;;;;;;;5033986;28;20028;-57
2021/06/28 12:43:41;;;;;;;54.70;51.30;;;;;;;;;;5034157;28;20052;-58
2021/06/28 12:46:08;;;;;;;53.97;50.22;;;;;;;;;;5032615;28;20044;-59
2021/06/28 12:48:36;;;;;;;55.50;51.85;;;;;;;;;;5033913;28;20072;-58
2021/06/28 12:51:08;;;;;;;55.35;51.85;;;;;;;;;;5033772;28;20022;-60
2021/06/28 12:53:36;;;;;;;52.78;49.30;;;;;;;;;;5033636;28;20030;-60
2021/06/28 12:56:08;;;;;;;52.50;48.60;;;;;;;;;;5033620;28;20042;-59
2021/06/28 12:58:42;;;;;;;51.55;47.53;;;;;;;;;;5033627;28;20049;-60
2021/06/28 13:01:09;;;;;;;51.22;47.67;;;;;;;;;;5033540;28;20102;-59
2021/06/28 13:03:36;;;;;;;52.83;49.03;;;;;;;;;;5033599;28;20018;-57
2021/06/28 13:06:19;;;;;;;55.05;51.00;;;;;;;;;;5033637;28;20021;-60
2021/06/28 13:08:48;;;;;;;56.75;52.75;;;;;;;;;;5033496;28;20017;-58
2021/06/28 13:11:17;;;;;;;58.08;53.95;;;;;;;;;;5033300;28;20031;-60
2021/06/28 13:14:12;;;;;;;60.90;56.60;;;;;;;;;;5033292;28;20034;-59
2021/06/28 13:19:16;;;;;;;60.05;55.92;;;;;;;;;;5033359;28;20026;-57
2021/06/28 13:21:52;;;;;;;60.05;55.50;;;;;;;;;;5033376;28;20052;-59
2021/06/28 13:24:21;;;;;;;60.83;56.60;;;;;;;;;;5033295;28;20032;-59
2021/06/28 13:26:49;;;;;;;59.40;55.25;;;;;;;;;;5033296;28;20433;-59
2021/06/28 13:29:19;;;;;;;59.95;55.45;;;;;;;;;;5033168;28;20022;-60
2021/06/28 13:31:55;;;;;;;57.08;53.30;;;;;;;;;;5033355;28;20033;-60
2021/06/28 13:34:23;;;;;;;59.25;55.00;;;;;;;;;;5033351;28;20148;-59
2021/06/28 13:37:10;;;;;;;60.22;55.63;;;;;;;;;;5033084;28;20059;-59
2021/06/28 13:39:42;;;;;;;56.97;53.28;;;;;;;;;;5033033;28;20033;-60
2021/06/28 13:42:18;;;;;;;56.70;53.10;;;;;;;;;;5032782;28;20074;-61
2021/06/28 13:45:09;;;;;;;58.33;54.17;;;;;;;;;;5032719;28;20026;-60
2021/06/28 13:47:52;;;;;;;60.63;56.42;;;;;;;;;;5027714;28;20094;-59
2021/06/28 13:50:24;;;;;;;62.15;58.22;;;;;;;;;;5032941;28;20025;-59
2021/06/28 13:52:52;;;;;;;61.03;56.78;;;;;;;;;;5032973;28;20395;-58
2021/06/28 13:55:19;;;;;;;61.00;56.85;;;;;;;;;;5032759;28;20123;-60
2021/06/28 13:57:55;;;;;;;60.25;55.78;;;;;;;;;;5032927;28;20430;-60
2021/06/28 14:00:30;;;;;;;59.22;55.13;;;;;;;;;;5033077;28;20103;-60
2021/06/28 14:02:58;;;;;;;57.67;53.50;;;;;;;;;;5032859;28;20040;-60
2021/06/28 14:05:26;;;;;;;56.88;53.08;;;;;;;;;;5032761;28;20026;-60
2021/06/28 14:07:53;;;;;;;58.55;54.35;;;;;;;;;;5032904;28;20037;-59
2021/06/28 14:10:21;;;;;;;57.90;54.00;;;;;;;;;;5032764;28;20021;-60
2021/06/28 14:12:48;;;;;;;57.72;53.55;;;;;;;;;;5032851;28;20429;-59
2021/06/28 14:15:16;;;;;;;57.95;54.10;;;;;;;;;;5032800;28;20096;-58
2021/06/28 14:17:44;;;;;;;56.45;52.72;;;;;;;;;;5032723;28;20029;-60
2021/06/28 14:20:13;;;;;;;54.85;51.17;;;;;;;;;;5032787;28;20108;-56
2021/06/28 14:22:40;;;;;;;56.58;52.97;;;;;;;;;;5032455;28;20483;-60
2021/06/28 14:25:08;;;;;;;55.38;51.83;;;;;;;;;;5032440;28;20026;-56
2021/06/28 14:27:36;;;;;;;56.20;52.40;;;;;;;;;;5032604;28;20072;-58
2021/06/28 14:30:04;;;;;;;53.85;50.25;;;;;;;;;;5032652;28;20018;-59
2021/06/28 14:32:31;;;;;;;54.60;50.35;;;;;;;;;;5032639;28;20029;-59